Time;durP1;ratioP1;P1;durP2;ratioP2;P2;SDS_P1;SDS_P2;PMS_P1;PMS_P2;Temp;Humidity;BMP_temperature;BMP_pressure;BME280_temperature;BME280_humidity;BME280_pressure;Samples;Min_cycle;Max_cycle;Signal;HPM_P1;HPM_P2
2022/07/23 00:01:16;;;;;;;6.45;2.60;;;;;;;25.92;45.81;100785.41;2102423;28;20067;-80
2022/07/23 00:02:39;;;;;;;6.10;3.05;;;;;;;25.92;45.67;100782.72;2098200;28;20047;-80
2022/07/23 00:04:01;;;;;;;8.70;3.00;;;;;;;25.90;45.60;100788.19;2102512;28;20135;-81
2022/07/23 00:05:24;;;;;;;6.15;3.17;;;;;;;25.87;45.76;100782.03;2110221;28;20047;-80
2022/07/23 00:06:46;;;;;;;5.72;2.58;;;;;;;25.84;45.80;100791.19;2102098;28;20075;-82
2022/07/23 00:08:09;;;;;;;5.40;3.10;;;;;;;25.82;45.87;100781.38;2099331;28;20055;-81
2022/07/23 00:09:33;;;;;;;5.40;2.90;;;;;;;25.82;46.15;100794.88;2109842;28;20054;-80
2022/07/23 00:10:55;;;;;;;5.88;2.50;;;;;;;25.78;45.97;100796.88;2110924;28;20039;-80
2022/07/23 00:12:17;;;;;;;6.07;2.97;;;;;;;25.76;46.05;100787.94;2104161;28;20083;-81
2022/07/23 00:13:38;;;;;;;6.07;3.30;;;;;;;25.75;46.30;100788.88;2102463;28;20051;-81
2022/07/23 00:15:02;;;;;;;5.78;3.05;;;;;;;25.75;46.09;100781.66;2102352;28;20040;-80
2022/07/23 00:16:23;;;;;;;4.82;2.50;;;;;;;25.78;46.26;100778.81;2102626;28;20654;-81
2022/07/23 00:17:46;;;;;;;6.78;3.10;;;;;;;25.87;46.10;100780.19;2094270;28;20045;-81
2022/07/23 00:19:09;;;;;;;6.38;3.00;;;;;;;25.92;46.10;100780.88;2102688;28;20086;-81
2022/07/23 00:20:31;;;;;;;7.82;3.00;;;;;;;25.92;45.94;100775.47;2094358;28;20048;-81
2022/07/23 00:21:53;;;;;;;4.88;2.90;;;;;;;25.93;45.78;100766.38;2099872;28;20176;-80
2022/07/23 00:23:15;;;;;;;5.95;3.05;;;;;;;25.95;45.94;100775.31;2102092;28;20078;-80
2022/07/23 00:24:39;;;;;;;8.30;3.17;;;;;;;25.94;45.90;100778.06;2104873;28;20058;-80
2022/07/23 00:26:01;;;;;;;5.53;2.63;;;;;;;25.91;45.74;100772.81;2096977;28;20587;-80
2022/07/23 00:27:24;;;;;;;8.60;2.92;;;;;;;25.89;46.03;100775.59;2102542;28;20059;-81
2022/07/23 00:28:45;;;;;;;6.03;2.80;;;;;;;25.86;45.94;100770.34;2101804;28;20048;-81
2022/07/23 00:30:09;;;;;;;8.05;3.00;;;;;;;25.83;46.11;100775.00;2094097;28;20461;-80
2022/07/23 00:31:32;;;;;;;6.32;2.65;;;;;;;25.78;46.40;100776.13;2103476;28;20182;-81
2022/07/23 00:32:57;;;;;;;4.90;2.97;;;;;;;25.77;46.31;100776.19;2109710;28;20146;-80
2022/07/23 00:34:19;;;;;;;4.65;2.75;;;;;;;25.74;46.41;100774.47;2102625;28;20526;-80
2022/07/23 00:35:43;;;;;;;5.47;2.83;;;;;;;25.72;46.43;100776.41;2101393;28;20083;-81
2022/07/23 00:37:05;;;;;;;7.20;2.78;;;;;;;25.75;46.18;100776.25;2101791;28;20063;-81
2022/07/23 00:38:28;;;;;;;7.32;3.35;;;;;;;25.77;46.24;100778.88;2103527;28;20052;-81
2022/07/23 00:39:52;;;;;;;7.35;2.85;;;;;;;25.77;46.17;100778.88;2102309;28;20059;-81
2022/07/23 00:41:14;;;;;;;5.35;2.90;;;;;;;25.77;46.08;100768.06;2096393;28;20095;-80
2022/07/23 00:42:36;;;;;;;5.90;2.83;;;;;;;25.76;46.50;100769.91;2099264;28;20047;-81
2022/07/23 00:44:20;;;;;;;6.40;2.90;;;;;;;25.72;46.49;100771.00;2104768;28;20127;-81
2022/07/23 00:45:43;;;;;;;9.85;3.30;;;;;;;25.65;46.42;100777.63;2096290;28;20521;-80
2022/07/23 00:47:06;;;;;;;9.93;3.00;;;;;;;25.60;46.77;100774.25;2094172;28;20052;-81
2022/07/23 00:48:27;;;;;;;7.18;2.83;;;;;;;25.57;46.81;100769.00;2099820;28;20043;-81
2022/07/23 00:49:49;;;;;;;5.95;2.88;;;;;;;25.53;46.96;100766.47;2101670;28;20113;-81
2022/07/23 00:51:11;;;;;;;7.18;3.17;;;;;;;25.50;47.06;100772.00;2094072;28;20071;-80
2022/07/23 00:52:34;;;;;;;7.50;3.35;;;;;;;25.45;47.15;100769.53;2093916;28;20410;-80
2022/07/23 00:53:57;;;;;;;4.90;3.00;;;;;;;25.40;47.20;100777.81;2108861;28;20146;-81
2022/07/23 00:55:21;;;;;;;5.60;3.33;;;;;;;25.40;47.48;100766.16;2112583;28;20540;-81
2022/07/23 00:56:44;;;;;;;5.20;3.08;;;;;;;25.38;47.32;100774.34;2110116;28;20039;-80
2022/07/23 00:58:07;;;;;;;8.77;3.25;;;;;;;25.33;47.27;100765.56;2101984;28;20075;-80
2022/07/23 00:59:28;;;;;;;7.35;2.80;;;;;;;25.31;47.37;100777.38;2104058;28;20402;-80
2022/07/23 01:00:53;;;;;;;7.72;2.85;;;;;;;25.29;47.42;100772.03;2110099;28;20142;-80
2022/07/23 01:02:14;;;;;;;7.05;3.40;;;;;;;25.26;47.61;100769.50;2103650;28;20096;-80
2022/07/23 01:03:36;;;;;;;6.32;2.80;;;;;;;25.23;47.55;100769.63;2103734;28;20040;-80
2022/07/23 01:04:58;;;;;;;5.28;2.63;;;;;;;25.21;47.49;100771.50;2105701;28;20035;-80
2022/07/23 01:06:20;;;;;;;6.97;3.28;;;;;;;25.20;47.73;100774.28;2106227;28;20052;-80
2022/07/23 01:07:45;;;;;;;12.88;3.30;;;;;;;25.20;47.84;100777.00;2106563;28;20055;-80
2022/07/23 01:09:08;;;;;;;6.95;2.97;;;;;;;25.20;47.97;100777.88;2095872;28;20044;-80
2022/07/23 01:10:31;;;;;;;10.10;3.40;;;;;;;25.19;47.83;100775.22;2092964;28;20037;-80
2022/07/23 01:11:55;;;;;;;6.50;2.97;;;;;;;25.17;47.62;100769.00;2095346;28;20051;-80
2022/07/23 01:13:18;;;;;;;6.30;3.00;;;;;;;25.13;47.76;100770.97;2109438;28;20078;-80
2022/07/23 01:14:40;;;;;;;5.88;2.95;;;;;;;25.14;47.83;100766.47;2106971;28;20136;-80
2022/07/23 01:16:03;;;;;;;4.60;2.88;;;;;;;25.12;48.01;100771.94;2095360;28;20055;-80
2022/07/23 01:17:25;;;;;;;5.82;2.97;;;;;;;25.11;47.87;100769.28;2102008;28;20060;-80
2022/07/23 01:18:47;;;;;;;9.02;3.72;;;;;;;25.02;47.96;100765.16;2099460;28;20493;-80
2022/07/23 01:20:10;;;;;;;8.43;3.00;;;;;;;24.94;48.17;100772.75;2092714;28;20037;-80
2022/07/23 01:21:34;;;;;;;7.40;3.05;;;;;;;24.91;48.29;100772.84;2094660;28;20060;-81
2022/07/23 01:22:57;;;;;;;5.53;3.25;;;;;;;24.92;48.37;100775.50;2103581;28;20489;-79
2022/07/23 01:24:20;;;;;;;9.93;3.10;;;;;;;24.92;48.38;100762.00;2111310;28;20040;-80
2022/07/23 01:25:54;;;;;;;8.38;3.40;;;;;;;24.93;48.57;100766.47;2104607;28;20040;-80
2022/07/23 01:27:17;;;;;;;7.15;3.55;;;;;;;24.93;48.49;100769.16;2104134;28;20693;-80
2022/07/23 01:28:41;;;;;;;6.82;3.50;;;;;;;24.93;48.43;100769.16;2106184;28;20052;-80
2022/07/23 01:30:04;;;;;;;7.30;3.60;;;;;;;24.90;48.50;100766.56;2106329;28;20047;-80
2022/07/23 01:31:27;;;;;;;7.38;3.35;;;;;;;24.84;48.71;100760.53;2098610;28;20052;-79
2022/07/23 01:32:49;;;;;;;8.30;3.40;;;;;;;24.77;48.72;100773.41;2095109;28;20036;-80
2022/07/23 01:34:12;;;;;;;7.55;3.25;;;;;;;24.71;48.94;100773.69;2095319;28;20569;-80
2022/07/23 01:35:34;;;;;;;5.22;2.78;;;;;;;24.70;49.14;100776.44;2099280;28;20611;-80
2022/07/23 01:37:00;;;;;;;8.23;2.90;;;;;;;24.68;49.22;100773.78;2095567;28;20110;-80
2022/07/23 01:38:23;;;;;;;5.53;3.30;;;;;;;24.68;49.28;100770.25;2092002;28;20032;-80
2022/07/23 01:39:46;;;;;;;6.45;3.10;;;;;;;24.63;49.06;100771.31;2100839;28;20075;-80
2022/07/23 01:41:09;;;;;;;6.40;3.00;;;;;;;24.59;49.16;100768.81;2096832;28;20040;-80
2022/07/23 01:42:31;;;;;;;7.30;3.45;;;;;;;24.60;49.08;100771.44;2109104;28;20439;-80
2022/07/23 01:43:54;;;;;;;5.85;3.08;;;;;;;24.60;49.18;100773.28;2106022;28;20052;-80
2022/07/23 01:45:16;;;;;;;6.65;3.08;;;;;;;24.59;49.42;100769.69;2095262;28;20459;-80
2022/07/23 01:46:42;;;;;;;5.65;2.85;;;;;;;24.60;49.03;100771.44;2100917;28;20085;-80
2022/07/23 01:48:06;;;;;;;6.38;3.10;;;;;;;24.61;49.26;100769.63;2094811;28;20051;-80
2022/07/23 01:49:29;;;;;;;6.15;2.83;;;;;;;24.60;49.28;100767.88;2095208;28;20048;-79
2022/07/23 01:51:12;;;;;;;6.10;3.08;;;;;;;24.56;49.46;100775.19;2106626;28;20173;-80
2022/07/23 01:52:38;;;;;;;10.82;3.38;;;;;;;24.56;49.52;100775.19;2105666;28;20139;-80
2022/07/23 01:54:03;;;;;;;7.75;3.47;;;;;;;24.59;49.28;100775.09;2097649;28;20037;-80
2022/07/23 01:55:25;;;;;;;5.60;3.05;;;;;;;24.58;49.25;100772.44;2103766;28;20114;-80
2022/07/23 01:56:47;;;;;;;10.57;3.88;;;;;;;24.55;49.54;100781.53;2099863;28;20409;-80
2022/07/23 01:58:09;;;;;;;5.25;2.80;;;;;;;24.51;49.53;100781.75;2100677;28;20139;-80
2022/07/23 01:59:32;;;;;;;7.47;3.35;;;;;;;24.46;49.62;100775.66;2109089;28;20433;-79
2022/07/23 02:00:53;;;;;;;9.02;3.30;;;;;;;24.47;49.69;100786.41;2097116;28;20071;-79
2022/07/23 02:02:16;;;;;;;6.43;3.20;;;;;;;24.47;49.81;100782.81;2092414;28;20053;-79
2022/07/23 02:03:38;;;;;;;12.70;3.85;;;;;;;24.47;49.59;100790.91;2100720;28;20040;-80
2022/07/23 02:05:01;;;;;;;6.72;3.00;;;;;;;24.46;49.88;100783.75;2107753;28;20051;-80
2022/07/23 02:06:24;;;;;;;6.20;2.58;;;;;;;24.47;49.82;100789.09;2105548;28;20081;-80
2022/07/23 02:07:45;;;;;;;6.72;3.42;;;;;;;24.49;49.71;100789.00;2100855;28;20542;-80
2022/07/23 02:09:09;;;;;;;6.22;3.35;;;;;;;24.50;49.65;100788.06;2108709;28;20098;-79
2022/07/23 02:10:32;;;;;;;7.05;3.25;;;;;;;24.52;49.63;100784.38;2095132;28;20550;-80
2022/07/23 02:11:53;;;;;;;7.97;3.13;;;;;;;24.55;49.84;100780.66;2100878;28;20063;-79
2022/07/23 02:13:16;;;;;;;11.07;3.35;;;;;;;24.55;49.59;100786.06;2094396;28;20040;-79
2022/07/23 02:14:37;;;;;;;9.23;3.13;;;;;;;24.53;49.87;100774.47;2094342;28;20130;-79
2022/07/23 02:16:00;;;;;;;8.80;3.28;;;;;;;24.50;49.91;100778.16;2094528;28;20147;-79
2022/07/23 02:17:21;;;;;;;10.93;3.60;;;;;;;24.48;50.03;100784.59;2092193;28;20036;-79
2022/07/23 02:18:44;;;;;;;7.65;3.33;;;;;;;24.45;49.83;100782.88;2100255;28;20063;-79
2022/07/23 02:20:07;;;;;;;7.50;4.18;;;;;;;24.43;50.10;100782.03;2111527;28;20489;-80
2022/07/23 02:21:29;;;;;;;5.32;3.45;;;;;;;24.44;50.00;100780.22;2108494;28;20046;-79
2022/07/23 02:22:52;;;;;;;5.13;3.30;;;;;;;24.44;50.18;100783.81;2107315;28;20093;-79
2022/07/23 02:24:17;;;;;;;6.93;2.92;;;;;;;24.43;49.96;100782.03;2102817;28;20044;-79
2022/07/23 02:25:39;;;;;;;7.13;3.03;;;;;;;24.42;50.15;100783.00;2086847;28;20049;-79
2022/07/23 02:27:02;;;;;;;8.60;3.25;;;;;;;24.42;50.04;100785.69;2089748;28;20044;-79
2022/07/23 02:28:25;;;;;;;6.07;3.25;;;;;;;24.43;50.18;100781.16;2092020;28;20037;-80
2022/07/23 02:29:46;;;;;;;8.32;3.40;;;;;;;24.43;50.17;100773.94;2100624;28;20153;-80
2022/07/23 02:31:10;;;;;;;7.80;3.63;;;;;;;24.44;50.18;100773.00;2097545;28;20082;-79
2022/07/23 02:32:32;;;;;;;7.88;3.17;;;;;;;24.43;50.24;100770.38;2108898;28;20079;-80
2022/07/23 02:33:54;;;;;;;7.50;3.08;;;;;;;24.44;50.44;100770.31;2101445;28;20044;-79
2022/07/23 02:35:16;;;;;;;6.20;3.15;;;;;;;24.45;50.35;100772.06;2102128;28;20036;-79
2022/07/23 02:36:39;;;;;;;5.90;3.10;;;;;;;24.49;50.39;100775.50;2098425;28;20037;-79
2022/07/23 02:38:02;;;;;;;5.70;3.20;;;;;;;24.50;50.33;100774.56;2100554;28;20142;-78
2022/07/23 02:39:27;;;;;;;7.13;2.83;;;;;;;24.52;50.30;100775.41;2096297;28;20041;-80
2022/07/23 02:40:49;;;;;;;5.07;2.85;;;;;;;24.54;50.28;100774.41;2102637;28;20139;-79
2022/07/23 02:42:12;;;;;;;10.63;3.60;;;;;;;24.55;50.31;100776.13;2100648;28;20051;-80
2022/07/23 02:43:34;;;;;;;7.22;3.35;;;;;;;24.56;50.32;100775.19;2103775;28;20109;-79
2022/07/23 02:44:57;;;;;;;7.65;3.10;;;;;;;24.55;50.32;100776.13;2095242;28;20044;-79
2022/07/23 02:46:18;;;;;;;8.75;3.08;;;;;;;24.51;50.28;100776.34;2097296;28;20051;-79
2022/07/23 02:47:42;;;;;;;7.07;3.22;;;;;;;24.49;50.41;100779.09;2098566;28;20048;-79
2022/07/23 02:49:05;;;;;;;6.97;2.95;;;;;;;24.47;50.39;100777.41;2102695;28;20075;-79
2022/07/23 02:50:28;;;;;;;5.05;2.70;;;;;;;24.44;50.32;100777.53;2095025;28;20135;-79
2022/07/23 02:51:52;;;;;;;6.22;2.95;;;;;;;24.44;50.35;100778.41;2093123;28;20056;-79
2022/07/23 02:53:14;;;;;;;8.13;3.50;;;;;;;24.42;50.68;100783.00;2099788;28;20056;-79
2022/07/23 02:54:40;;;;;;;5.38;3.53;;;;;;;24.41;50.83;100783.97;2099355;28;20032;-80
2022/07/23 02:56:02;;;;;;;7.75;3.63;;;;;;;24.43;50.73;100776.66;2093981;28;20044;-79
2022/07/23 02:57:24;;;;;;;7.25;3.47;;;;;;;24.43;50.81;100784.75;2100293;28;20055;-79
2022/07/23 02:58:46;;;;;;;6.03;3.25;;;;;;;24.43;50.71;100781.16;2105004;28;20050;-80
2022/07/23 03:00:10;;;;;;;6.22;3.10;;;;;;;24.43;50.69;100787.44;2094814;28;20051;-79
2022/07/23 03:01:32;;;;;;;10.52;3.47;;;;;;;24.40;50.75;100784.91;2092023;28;20190;-79
2022/07/23 03:02:54;;;;;;;7.47;3.25;;;;;;;24.40;50.71;100784.00;2099466;28;20496;-79
2022/07/23 03:04:17;;;;;;;6.75;3.03;;;;;;;24.38;51.00;100777.78;2094624;28;20036;-79
2022/07/23 03:05:38;;;;;;;10.70;3.50;;;;;;;24.35;50.89;100775.22;2100050;28;20071;-80
2022/07/23 03:07:01;;;;;;;6.72;3.17;;;;;;;24.33;51.04;100777.97;2094487;28;20063;-79
2022/07/23 03:08:22;;;;;;;6.82;3.33;;;;;;;24.34;51.13;100776.16;2094528;28;20406;-78
2022/07/23 03:09:49;;;;;;;7.75;2.75;;;;;;;24.36;50.76;100780.53;2099272;28;20056;-79
2022/07/23 03:11:10;;;;;;;8.43;2.80;;;;;;;24.36;50.90;100779.66;2100478;28;20101;-80
2022/07/23 03:12:34;;;;;;;4.20;2.50;;;;;;;24.36;50.82;100777.84;2098341;28;20142;-78
2022/07/23 03:13:57;;;;;;;8.18;2.92;;;;;;;24.36;50.70;100774.25;2101287;28;20065;-79
2022/07/23 03:15:20;;;;;;;10.70;4.80;;;;;;;24.34;50.64;100773.47;2104823;28;20045;-79
2022/07/23 03:16:41;;;;;;;5.30;3.03;;;;;;;24.32;50.86;100778.94;2118458;27;20579;-79
2022/07/23 03:18:04;;;;;;;5.50;3.22;;;;;;;24.30;50.61;100780.78;2096613;28;20044;-79
2022/07/23 03:19:25;;;;;;;6.40;3.05;;;;;;;24.31;50.99;100781.69;2100784;28;20170;-79
2022/07/23 03:20:48;;;;;;;7.03;2.78;;;;;;;24.33;50.92;100779.81;2096948;28;20562;-79
2022/07/23 03:22:09;;;;;;;5.60;3.03;;;;;;;24.35;50.72;100783.34;2107265;28;20047;-79
2022/07/23 03:23:32;;;;;;;9.70;4.15;;;;;;;24.33;50.83;100777.97;2100258;28;20093;-80
2022/07/23 03:24:55;;;;;;;8.63;3.30;;;;;;;24.32;50.83;100784.31;2094177;28;20063;-79
2022/07/23 03:26:25;;;;;;;8.05;3.15;;;;;;;24.35;50.78;100788.72;2101532;28;20443;-79
2022/07/23 03:27:48;;;;;;;5.25;3.17;;;;;;;24.32;50.90;100786.13;2111290;28;20052;-79
2022/07/23 03:29:10;;;;;;;4.07;2.55;;;;;;;24.32;50.85;100787.03;2101141;28;20048;-79
2022/07/23 03:30:33;;;;;;;;;;;;;;;24.32;51.06;100788.84;2105617;28;20062;-80
2022/07/23 03:31:54;;;;;;;;;;;;;;;24.30;51.00;100783.50;2103218;28;19928;-80
2022/07/23 03:33:18;;;;;;;8.52;3.38;;;;;;;24.32;51.12;100784.31;2096097;28;20002;-80
2022/07/23 03:34:39;;;;;;;6.22;3.10;;;;;;;24.36;51.00;100790.44;2097228;28;20390;-80
2022/07/23 03:36:02;;;;;;;7.95;3.30;;;;;;;24.42;50.78;100792.91;2104059;28;20143;-79
2022/07/23 03:37:28;;;;;;;6.25;2.83;;;;;;;24.51;50.73;100798.81;2102236;28;20052;-79
2022/07/23 03:38:53;;;;;;;12.45;4.60;;;;;;;24.60;50.40;100798.44;2092327;28;20049;-79
2022/07/23 03:40:16;;;;;;;8.35;2.88;;;;;;;24.70;50.39;100796.22;2102792;28;20062;-80
2022/07/23 03:41:39;;;;;;;6.57;3.35;;;;;;;24.82;50.20;100800.22;2094465;28;20529;-79
2022/07/23 03:43:02;;;;;;;7.88;3.63;;;;;;;24.91;49.89;100798.06;2091242;28;20135;-79
2022/07/23 03:44:24;;;;;;;5.55;2.97;;;;;;;24.99;50.00;100798.59;2095153;28;20056;-79
2022/07/23 03:45:46;;;;;;;11.68;3.40;;;;;;;25.10;49.49;100802.66;2102091;28;20056;-79
2022/07/23 03:47:07;;;;;;;6.43;2.90;;;;;;;25.22;49.19;100797.59;2096426;28;20053;-80
2022/07/23 03:48:30;;;;;;;5.03;2.60;;;;;;;25.36;48.95;100807.78;2099827;28;20055;-79
2022/07/23 03:49:51;;;;;;;8.15;2.58;;;;;;;25.48;49.01;100800.94;2110583;28;20096;-79
2022/07/23 03:51:14;;;;;;;5.97;2.95;;;;;;;25.60;48.86;100805.84;2098844;28;20036;-79
2022/07/23 03:52:35;;;;;;;7.88;2.72;;;;;;;25.67;48.46;100800.06;2094222;28;20068;-80
2022/07/23 03:53:58;;;;;;;5.88;2.88;;;;;;;25.78;48.59;100813.09;2093843;28;20040;-80
2022/07/23 03:55:22;;;;;;;8.15;3.75;;;;;;;25.89;48.16;100802.66;2106147;28;20109;-80
2022/07/23 03:56:43;;;;;;;4.80;2.58;;;;;;;26.00;48.35;100803.00;2102603;28;20048;-80
2022/07/23 03:58:06;;;;;;;4.80;2.63;;;;;;;26.10;47.95;100804.34;2101736;28;20048;-79
2022/07/23 03:59:28;;;;;;;6.38;2.70;;;;;;;26.22;47.86;100807.41;2096708;28;20040;-80
2022/07/23 04:00:51;;;;;;;4.82;2.75;;;;;;;26.34;47.78;100801.41;2098511;28;20044;-79
2022/07/23 04:02:12;;;;;;;4.70;2.45;;;;;;;26.44;47.72;100810.88;2107688;28;20051;-80
2022/07/23 04:03:35;;;;;;;7.55;2.95;;;;;;;26.53;47.57;100799.56;2110654;28;20135;-79
2022/07/23 04:04:57;;;;;;;8.98;2.90;;;;;;;26.64;47.37;100802.63;2109490;28;20044;-79
2022/07/23 04:06:19;;;;;;;4.72;2.53;;;;;;;26.75;47.42;100804.78;2110354;28;20031;-79
2022/07/23 04:07:42;;;;;;;6.03;2.22;;;;;;;26.85;47.18;100801.53;2102331;28;20071;-79
2022/07/23 04:09:04;;;;;;;6.80;2.47;;;;;;;26.96;47.07;100796.47;2096698;28;20756;-79
2022/07/23 04:10:29;;;;;;;4.97;2.85;;;;;;;27.06;46.66;100799.56;2101740;28;20134;-81
2022/07/23 04:11:51;;;;;;;3.55;2.20;;;;;;;27.17;46.62;100801.75;2097182;28;20098;-80
2022/07/23 04:13:15;;;;;;;8.52;2.63;;;;;;;27.26;46.46;100806.66;2099833;28;20483;-79
2022/07/23 04:14:37;;;;;;;7.28;2.78;;;;;;;27.34;46.40;100802.59;2101791;28;20044;-79
2022/07/23 04:15:59;;;;;;;5.82;2.80;;;;;;;27.47;46.23;100802.81;2102308;28;20052;-80
2022/07/23 04:17:22;;;;;;;5.20;2.42;;;;;;;27.58;46.04;100795.00;2094301;28;20048;-80
2022/07/23 04:18:43;;;;;;;15.95;3.00;;;;;;;27.68;46.11;100795.38;2099158;28;20076;-80
2022/07/23 04:20:12;;;;;;;7.07;2.42;;;;;;;27.80;46.00;100802.84;2094280;28;20056;-79
2022/07/23 04:21:42;;;;;;;8.38;2.45;;;;;;;27.94;45.73;100807.53;2093796;28;20035;-79
2022/07/23 04:23:04;;;;;;;5.45;2.58;;;;;;;28.07;45.58;100804.03;2091068;28;20148;-79
2022/07/23 04:24:26;;;;;;;5.80;2.38;;;;;;;28.20;45.39;100801.53;2090957;28;20060;-79
2022/07/23 04:25:50;;;;;;;7.75;2.38;;;;;;;28.31;45.07;100804.50;2097576;28;20048;-79
2022/07/23 04:27:13;;;;;;;5.70;2.67;;;;;;;28.43;44.93;100803.78;2095770;28;20051;-79
2022/07/23 04:28:35;;;;;;;5.38;2.78;;;;;;;28.55;44.67;100805.78;2093308;28;20583;-79
2022/07/23 04:29:58;;;;;;;3.95;2.22;;;;;;;28.68;44.36;100805.09;2091376;28;20068;-80
2022/07/23 04:31:19;;;;;;;5.35;2.45;;;;;;;28.84;44.27;100804.13;2102720;28;20543;-79
2022/07/23 04:32:42;;;;;;;5.63;2.28;;;;;;;29.00;44.08;100792.34;2102001;28;20048;-80
2022/07/23 04:34:11;;;;;;;8.18;2.60;;;;;;;29.14;43.54;100806.00;2109713;28;20036;-80
2022/07/23 04:35:33;;;;;;;7.97;2.45;;;;;;;29.23;43.20;100800.84;2110292;28;20051;-80
2022/07/23 04:37:06;;;;;;;8.27;2.72;;;;;;;29.36;42.74;100802.84;2103402;28;20032;-80
2022/07/23 04:38:28;;;;;;;7.20;2.42;;;;;;;29.48;42.47;100804.78;2099374;28;20040;-79
2022/07/23 04:39:55;;;;;;;6.93;2.80;;;;;;;29.62;42.34;100813.84;2099952;28;20096;-81
2022/07/23 04:41:21;;;;;;;5.53;2.35;;;;;;;29.81;42.13;100808.13;2093806;28;20051;-80
2022/07/23 04:42:44;;;;;;;5.28;2.05;;;;;;;29.97;41.83;100803.50;2098390;28;20052;-80
2022/07/23 04:44:05;;;;;;;5.72;2.47;;;;;;;30.15;41.79;100817.75;2095262;28;20068;-80
2022/07/23 04:45:28;;;;;;;;;;;;;;;30.25;41.35;100810.75;2099957;28;20524;-80
2022/07/23 04:46:49;;;;;;;5.95;2.38;;;;;;;30.42;41.20;100815.06;2098950;28;19928;-81
2022/07/23 04:48:12;;;;;;;5.00;2.25;;;;;;;30.53;40.49;100808.94;2103909;28;20040;-81
2022/07/23 04:49:35;;;;;;;6.10;2.75;;;;;;;30.62;40.50;100811.06;2099611;28;20162;-80
2022/07/23 04:50:57;;;;;;;7.95;2.28;;;;;;;30.73;40.28;100808.47;2107289;28;20066;-81
2022/07/23 04:52:21;;;;;;;7.07;2.60;;;;;;;30.86;39.77;100810.28;2102405;28;20036;-81
2022/07/23 04:53:44;;;;;;;5.32;2.63;;;;;;;30.99;39.10;100806.69;2098367;28;20067;-80
2022/07/23 04:55:06;;;;;;;4.15;2.15;;;;;;;31.12;38.88;100816.69;2096410;28;20513;-81
2022/07/23 04:56:32;;;;;;;4.68;2.33;;;;;;;31.24;38.50;100807.66;2099791;28;20048;-81
2022/07/23 04:57:54;;;;;;;4.15;2.03;;;;;;;31.32;38.17;100803.53;2096528;28;20047;-80
2022/07/23 04:59:17;;;;;;;6.85;2.60;;;;;;;31.45;38.11;100808.00;2093927;28;20044;-80
2022/07/23 05:00:39;;;;;;;9.68;2.22;;;;;;;31.64;37.39;100813.06;2091230;28;20111;-79
2022/07/23 05:02:02;;;;;;;7.18;2.30;;;;;;;31.89;36.97;100809.47;2096162;28;20076;-79
2022/07/23 05:03:24;;;;;;;7.97;2.83;;;;;;;32.16;36.81;100812.09;2099294;28;20044;-79
2022/07/23 05:04:49;;;;;;;5.45;2.15;;;;;;;32.36;36.16;100800.56;2093798;28;20056;-80
2022/07/23 05:06:12;;;;;;;6.20;2.05;;;;;;;32.47;35.84;100810.66;2102719;28;20051;-79
2022/07/23 05:07:33;;;;;;;8.20;2.25;;;;;;;32.61;35.68;100796.84;2110163;28;20143;-80
2022/07/23 05:08:56;;;;;;;4.47;2.45;;;;;;;32.64;35.50;100811.13;2101731;28;20167;-80
2022/07/23 05:10:19;;;;;;;5.50;2.53;;;;;;;32.75;35.28;100810.38;2095101;28;20127;-80
2022/07/23 05:11:43;;;;;;;5.82;2.20;;;;;;;32.93;35.34;100813.56;2091080;28;20045;-80
2022/07/23 05:13:04;;;;;;;5.43;2.40;;;;;;;33.16;34.52;100799.81;2091372;28;20040;-79
2022/07/23 05:14:27;;;;;;;5.22;2.55;;;;;;;33.36;34.23;100805.63;2094611;28;20045;-80
2022/07/23 05:15:50;;;;;;;9.02;2.00;;;;;;;33.53;34.14;100816.13;2096230;28;20052;-80
2022/07/23 05:17:12;;;;;;;6.72;2.30;;;;;;;33.68;33.80;100812.16;2093723;28;20101;-80
2022/07/23 05:18:35;;;;;;;4.95;2.15;;;;;;;33.77;33.81;100808.72;2096354;28;20052;-80
2022/07/23 05:19:57;;;;;;;6.85;2.92;;;;;;;33.95;33.53;100807.22;2099231;28;20052;-80
2022/07/23 05:21:20;;;;;;;3.58;1.65;;;;;;;34.14;33.18;100809.31;2102660;28;20652;-80
2022/07/23 05:22:43;;;;;;;5.28;2.00;;;;;;;34.27;32.93;100806.47;2102919;28;20036;-80
2022/07/23 05:24:07;;;;;;;5.47;2.08;;;;;;;34.37;32.95;100812.97;2093390;28;20094;-80
2022/07/23 05:25:30;;;;;;;6.45;2.35;;;;;;;34.56;32.74;100815.91;2097561;28;20048;-80
2022/07/23 05:26:54;;;;;;;6.22;2.17;;;;;;;34.69;32.54;100802.03;2099513;28;20036;-80
2022/07/23 05:28:17;;;;;;;5.60;1.92;;;;;;;34.75;32.26;100801.53;2101902;28;20131;-80
2022/07/23 05:29:39;;;;;;;6.70;2.03;;;;;;;34.83;32.00;100809.13;2097274;28;20076;-81
2022/07/23 05:31:04;;;;;;;7.32;2.30;;;;;;;34.91;31.83;100818.44;2102325;28;20051;-80
2022/07/23 05:32:27;;;;;;;6.45;2.25;;;;;;;35.01;31.83;100810.28;2098638;28;20052;-81
2022/07/23 05:34:01;;;;;;;6.20;2.38;;;;;;;35.09;31.17;100813.25;2102486;28;20044;-80
2022/07/23 05:35:23;;;;;;;8.73;2.30;;;;;;;35.10;31.02;100815.00;2102506;28;20464;-80
2022/07/23 05:37:00;;;;;;;10.70;2.40;;;;;;;35.21;30.72;100820.44;2095593;28;20565;-80
2022/07/23 05:38:23;;;;;;;3.35;1.67;;;;;;;35.30;30.54;100819.66;2101680;28;20033;-80
2022/07/23 05:39:46;;;;;;;7.78;2.22;;;;;;;35.15;30.50;100809.97;2094871;28;20541;-80
2022/07/23 05:41:08;;;;;;;5.95;1.90;;;;;;;35.23;30.55;100809.34;2095279;28;20044;-81
2022/07/23 05:42:32;;;;;;;4.63;1.83;;;;;;;35.34;30.50;100818.38;2103391;28;20485;-81
2022/07/23 05:43:55;;;;;;;4.90;2.00;;;;;;;35.29;30.44;100811.56;2106036;28;20108;-81
2022/07/23 05:45:16;;;;;;;6.22;2.50;;;;;;;35.24;30.21;100822.06;2095300;28;20059;-82
2022/07/23 05:46:41;;;;;;;5.85;2.17;;;;;;;35.22;30.48;100824.94;2101189;28;20059;-81
2022/07/23 05:48:06;;;;;;;5.65;2.35;;;;;;;35.23;30.38;100812.97;2102609;28;20055;-80
2022/07/23 05:49:35;;;;;;;5.93;2.05;;;;;;;35.30;30.36;100808.69;2100264;28;20098;-81
2022/07/23 05:51:24;;;;;;;6.28;2.20;;;;;;;35.42;30.22;100807.59;2106303;28;20129;-80
2022/07/23 05:52:48;;;;;;;6.35;2.10;;;;;;;35.53;30.22;100804.78;2103821;28;20055;-81
2022/07/23 05:54:36;;;;;;;10.25;1.92;;;;;;;35.61;30.01;100811.47;2112865;28;20056;-80
2022/07/23 05:55:58;;;;;;;5.60;2.20;;;;;;;35.68;30.28;100812.66;2104046;28;20071;-81
2022/07/23 05:57:21;;;;;;;5.65;1.85;;;;;;;35.71;29.81;100818.78;2108943;28;20427;-81
2022/07/23 05:58:44;;;;;;;6.78;2.30;;;;;;;35.79;29.85;100809.84;2111767;28;20143;-81
2022/07/23 06:00:09;;;;;;;6.65;2.40;;;;;;;35.91;30.02;100811.50;2105647;28;20048;-81
2022/07/23 06:01:36;;;;;;;5.60;2.00;;;;;;;35.95;29.80;100805.63;2110970;28;20071;-81
2022/07/23 06:03:05;;;;;;;4.13;2.38;;;;;;;35.96;29.46;100809.22;2102829;28;20051;-81
2022/07/23 06:04:28;;;;;;;4.78;2.10;;;;;;;35.91;29.78;100809.63;2095403;28;20044;-80
2022/07/23 06:06:11;;;;;;;5.60;2.05;;;;;;;35.80;29.78;100819.84;2105977;28;20043;-80
2022/07/23 06:07:34;;;;;;;7.03;2.20;;;;;;;35.89;29.68;100825.41;2095130;28;20037;-80
2022/07/23 06:08:57;;;;;;;6.43;2.45;;;;;;;35.90;29.79;100809.78;2095118;28;20057;-80
2022/07/23 06:10:19;;;;;;;6.30;2.22;;;;;;;35.92;29.65;100811.38;2092545;28;20051;-81
2022/07/23 06:11:42;;;;;;;6.60;2.17;;;;;;;35.88;29.23;100818.16;2100556;28;20051;-81
2022/07/23 06:13:03;;;;;;;5.15;2.25;;;;;;;35.79;29.16;100812.59;2105615;28;20051;-80
2022/07/23 06:14:28;;;;;;;8.63;2.10;;;;;;;35.77;29.18;100817.38;2101597;28;20051;-81
2022/07/23 06:15:53;;;;;;;7.00;1.95;;;;;;;35.74;29.11;100818.53;2097627;28;20565;-80
2022/07/23 06:17:15;;;;;;;9.30;2.67;;;;;;;35.79;29.31;100818.09;2099457;28;20048;-80
2022/07/23 06:18:38;;;;;;;6.35;1.90;;;;;;;35.78;28.85;100808.97;2094639;28;20056;-80
2022/07/23 06:20:00;;;;;;;7.50;2.45;;;;;;;35.83;28.91;100811.34;2100373;28;20520;-80
2022/07/23 06:21:22;;;;;;;5.85;2.13;;;;;;;35.96;28.80;100814.72;2103332;28;20044;-80
2022/07/23 06:22:45;;;;;;;6.60;2.28;;;;;;;36.06;28.63;100814.75;2103442;28;20158;-81
2022/07/23 06:24:07;;;;;;;3.05;2.00;;;;;;;36.03;28.50;100821.41;2094778;28;20052;-81
2022/07/23 06:25:29;;;;;;;;;;;;;;;35.79;28.79;100831.84;2102352;28;20134;-81
2022/07/23 06:26:51;;;;;;;6.50;2.10;;;;;;;35.87;28.78;100818.28;2094998;28;19920;-81
2022/07/23 06:28:14;;;;;;;5.90;2.10;;;;;;;35.97;28.45;100813.72;2092307;28;20041;-81
2022/07/23 06:29:40;;;;;;;5.43;1.90;;;;;;;35.98;28.37;100823.69;2101672;28;20082;-81